Rm Thomas — FNMP — position and weather

sailwx.info

Track history (hours):
 
Tides and Currents Weather Stations Pressure Air Temp Water Temp Dewpoint Dewpoint Depression Visibility Wind Speed Wind Dir Waves Ship Positions

Rm Thomas

Last reported at 2017-Nov-19 12:00 UTC. Time now 2017-Nov-22 22:16 UTC.
Position N 44°53' W 000°32'.

Length 25 m; draft 4 m.

Type: Tug. MMSI: 228278700.

Date/timePositionNaut miles runAvg speedWind from/ knotsBaromVisibWave heightAir tempDewpointWater temp
2017-Nov-19 12:00N 44°53' W 000°32'0 0.0
2017-Nov-19 07:03N 44°53' W 000°32'0 0.0
2017-Nov-19 06:59N 44°53' W 000°32'1 1.5
2017-Nov-19 06:10N 44°54' W 000°33'210.7
2017-Nov-19 05:58N 44°57' W 000°33'4 8.1
2017-Nov-19 05:30N 45°00' W 000°34'0 0.1
2017-Nov-19 04:54N 45°00' W 000°34'2 6.0
2017-Nov-19 04:30N 44°58' W 000°32'5 5.9
2017-Nov-19 03:43N 44°53' W 000°32'0 0.3
2017-Nov-19 03:25N 44°53' W 000°32'0 0.0
2017-Nov-19 02:56N 44°53' W 000°32'0 0.0
2017-Nov-19 01:39N 44°53' W 000°32'0 0.0
2017-Nov-19 01:19N 44°53' W 000°32'0 0.0
2017-Nov-19 00:10N 44°53' W 000°32'0 0.0
2017-Nov-18 23:58N 44°53' W 000°32'0 0.0
2017-Nov-18 23:00N 44°53' W 000°32'0 0.0
2017-Nov-18 21:48N 44°53' W 000°32'0 0.0
2017-Nov-18 20:54N 44°53' W 000°32'0 0.0
2017-Nov-18 20:30N 44°53' W 000°32'0 0.0
2017-Nov-17 06:35N 44°53' W 000°32'0 0.0
2017-Nov-17 06:25N 44°53' W 000°32'1 2.4
2017-Nov-17 06:00N 44°54' W 000°32'0 0.8
2017-Nov-17 05:21N 44°55' W 000°33'0 0.0
2017-Nov-17 05:01N 44°55' W 000°33'0 0.0
2017-Nov-17 04:30N 44°55' W 000°33'1 2.9
2017-Nov-17 04:00N 44°53' W 000°32'0 0.0
2017-Nov-17 03:28N 44°53' W 000°32'0 0.0
2017-Nov-17 02:59N 44°53' W 000°32'0 0.0
2017-Nov-17 02:24N 44°53' W 000°32'0 0.0
2017-Nov-17 01:59N 44°53' W 000°32'0 0.0
2017-Nov-17 01:23N 44°53' W 000°32'0 0.0
2017-Nov-17 00:59N 44°53' W 000°32'0 0.0
2017-Nov-17 00:31N 44°53' W 000°32'0 0.0
2017-Nov-16 23:51N 44°53' W 000°32'7 1.0
2017-Nov-16 16:16N 45°00' W 000°34'0 0.1
2017-Nov-16 16:00N 45°00' W 000°34'  
2017-Nov-11 08:17N 45°17' W 000°46'413.1
2017-Nov-11 07:59N 45°21' W 000°48'612.8
2017-Nov-11 07:30N 45°26' W 000°53'612.7
2017-Nov-11 07:00N 45°31' W 000°59'612.5
2017-Nov-11 06:30N 45°36' W 001°04'611.2
2017-Nov-11 06:01N 45°39' W 001°11'510.4
2017-Nov-11 05:30N 45°38' W 001°18'4 7.4
2017-Nov-11 05:00N 45°38' W 001°23'3310.3
2017-Nov-11 01:51N 46°07' W 001°45'410.6
2017-Nov-11 01:30N 46°10' W 001°48'510.4
2017-Nov-11 01:00N 46°15' W 001°51'510.5
2017-Nov-11 00:30N 46°19' W 001°55'510.5
2017-Nov-11 00:01N 46°24' W 001°58'510.6
2017-Nov-10 23:30N 46°28' W 002°02'510.4
2017-Nov-10 23:00N 46°33' W 002°06'510.6
2017-Nov-10 22:30N 46°38' W 002°10'510.6
2017-Nov-10 22:00N 46°42' W 002°14'610.8
2017-Nov-10 21:29N 46°47' W 002°18'510.8
2017-Nov-10 21:00N 46°51' W 002°23'1110.8
2017-Nov-10 19:56N 46°59' W 002°35'510.6
2017-Nov-10 19:29N 47°03' W 002°39'610.6
2017-Nov-10 18:55N 47°08' W 002°45'410.5
2017-Nov-10 18:30N 47°11' W 002°49'510.5
2017-Nov-10 18:01N 47°15' W 002°54'510.6
2017-Nov-10 17:30N 47°19' W 002°60'510.5
2017-Nov-10 17:00N 47°23' W 003°05'611.1
2017-Nov-10 16:31N 47°27' W 003°10'510.8
2017-Nov-10 16:00N 47°31' W 003°14'510.5
2017-Nov-10 15:30N 47°35' W 003°19'611.2
2017-Nov-10 15:00N 47°40' W 003°24'4 8.1
2017-Nov-10 14:30N 47°44' W 003°22'1 1.1
2017-Nov-10 14:00N 47°43' W 003°22'0 0.9
2017-Nov-10 13:30N 47°44' W 003°22'0 0.2
2017-Nov-10 13:00N 47°44' W 003°22'0 0.0
2017-Nov-10 12:31N 47°44' W 003°22'0 0.0
2017-Nov-10 12:01N 47°44' W 003°22'0 0.0
2017-Nov-10 11:31N 47°44' W 003°22'0 0.0
2017-Nov-10 11:01N 47°44' W 003°22'0 0.0
2017-Nov-10 10:30N 47°44' W 003°22'0 0.0
2017-Nov-10 10:00N 47°44' W 003°22'0 0.6
2017-Nov-10 09:31N 47°44' W 003°22'0 0.0
2017-Nov-10 09:00N 47°44' W 003°22'  
Track history (hours):
 
Tides and Currents Weather Stations Pressure Air Temp Water Temp Dewpoint Dewpoint Depression Visibility Wind Speed Wind Dir Waves Ship Positions

Rm Thomas

Last reported at 2017-Nov-19 12:00 UTC. Time now 2017-Nov-22 22:16 UTC.
Position N 44°53' W 000°32'.

Length 25 m; draft 4 m.

Type: Tug. MMSI: 228278700.

Date/timePositionNaut miles runAvg speedWind from/ knotsBaromVisibWave heightAir tempDewpointWater temp
2017-Nov-19 12:00N 44°53' W 000°32'0 0.0
2017-Nov-19 07:03N 44°53' W 000°32'0 0.0
2017-Nov-19 06:59N 44°53' W 000°32'1 1.5
2017-Nov-19 06:10N 44°54' W 000°33'210.7
2017-Nov-19 05:58N 44°57' W 000°33'4 8.1
2017-Nov-19 05:30N 45°00' W 000°34'0 0.1
2017-Nov-19 04:54N 45°00' W 000°34'2 6.0
2017-Nov-19 04:30N 44°58' W 000°32'5 5.9
2017-Nov-19 03:43N 44°53' W 000°32'0 0.3
2017-Nov-19 03:25N 44°53' W 000°32'0 0.0
2017-Nov-19 02:56N 44°53' W 000°32'0 0.0
2017-Nov-19 01:39N 44°53' W 000°32'0 0.0
2017-Nov-19 01:19N 44°53' W 000°32'0 0.0
2017-Nov-19 00:10N 44°53' W 000°32'0 0.0
2017-Nov-18 23:58N 44°53' W 000°32'0 0.0
2017-Nov-18 23:00N 44°53' W 000°32'0 0.0
2017-Nov-18 21:48N 44°53' W 000°32'0 0.0
2017-Nov-18 20:54N 44°53' W 000°32'0 0.0
2017-Nov-18 20:30N 44°53' W 000°32'0 0.0
2017-Nov-17 06:35N 44°53' W 000°32'0 0.0
2017-Nov-17 06:25N 44°53' W 000°32'1 2.4
2017-Nov-17 06:00N 44°54' W 000°32'0 0.8
2017-Nov-17 05:21N 44°55' W 000°33'0 0.0
2017-Nov-17 05:01N 44°55' W 000°33'0 0.0
2017-Nov-17 04:30N 44°55' W 000°33'1 2.9
2017-Nov-17 04:00N 44°53' W 000°32'0 0.0
2017-Nov-17 03:28N 44°53' W 000°32'0 0.0
2017-Nov-17 02:59N 44°53' W 000°32'0 0.0
2017-Nov-17 02:24N 44°53' W 000°32'0 0.0
2017-Nov-17 01:59N 44°53' W 000°32'0 0.0
2017-Nov-17 01:23N 44°53' W 000°32'0 0.0
2017-Nov-17 00:59N 44°53' W 000°32'0 0.0
2017-Nov-17 00:31N 44°53' W 000°32'0 0.0
2017-Nov-16 23:51N 44°53' W 000°32'7 1.0
2017-Nov-16 16:16N 45°00' W 000°34'0 0.1
2017-Nov-16 16:00N 45°00' W 000°34'  
2017-Nov-11 08:17N 45°17' W 000°46'413.1
2017-Nov-11 07:59N 45°21' W 000°48'612.8
2017-Nov-11 07:30N 45°26' W 000°53'612.7
2017-Nov-11 07:00N 45°31' W 000°59'612.5
2017-Nov-11 06:30N 45°36' W 001°04'611.2
2017-Nov-11 06:01N 45°39' W 001°11'510.4
2017-Nov-11 05:30N 45°38' W 001°18'4 7.4
2017-Nov-11 05:00N 45°38' W 001°23'3310.3
2017-Nov-11 01:51N 46°07' W 001°45'410.6
2017-Nov-11 01:30N 46°10' W 001°48'510.4
2017-Nov-11 01:00N 46°15' W 001°51'510.5
2017-Nov-11 00:30N 46°19' W 001°55'510.5
2017-Nov-11 00:01N 46°24' W 001°58'510.6
2017-Nov-10 23:30N 46°28' W 002°02'510.4
2017-Nov-10 23:00N 46°33' W 002°06'510.6
2017-Nov-10 22:30N 46°38' W 002°10'510.6
2017-Nov-10 22:00N 46°42' W 002°14'610.8
2017-Nov-10 21:29N 46°47' W 002°18'510.8
2017-Nov-10 21:00N 46°51' W 002°23'1110.8
2017-Nov-10 19:56N 46°59' W 002°35'510.6
2017-Nov-10 19:29N 47°03' W 002°39'610.6
2017-Nov-10 18:55N 47°08' W 002°45'410.5
2017-Nov-10 18:30N 47°11' W 002°49'510.5
2017-Nov-10 18:01N 47°15' W 002°54'510.6
2017-Nov-10 17:30N 47°19' W 002°60'510.5
2017-Nov-10 17:00N 47°23' W 003°05'611.1
2017-Nov-10 16:31N 47°27' W 003°10'510.8
2017-Nov-10 16:00N 47°31' W 003°14'510.5
2017-Nov-10 15:30N 47°35' W 003°19'611.2
2017-Nov-10 15:00N 47°40' W 003°24'4 8.1
2017-Nov-10 14:30N 47°44' W 003°22'1 1.1
2017-Nov-10 14:00N 47°43' W 003°22'0 0.9
2017-Nov-10 13:30N 47°44' W 003°22'0 0.2
2017-Nov-10 13:00N 47°44' W 003°22'0 0.0
2017-Nov-10 12:31N 47°44' W 003°22'0 0.0
2017-Nov-10 12:01N 47°44' W 003°22'0 0.0
2017-Nov-10 11:31N 47°44' W 003°22'0 0.0
2017-Nov-10 11:01N 47°44' W 003°22'0 0.0
2017-Nov-10 10:30N 47°44' W 003°22'0 0.0
2017-Nov-10 10:00N 47°44' W 003°22'0 0.6
2017-Nov-10 09:31N 47°44' W 003°22'0 0.0
2017-Nov-10 09:00N 47°44' W 003°22'  

Dump ship's entire track history